Time;durP1;ratioP1;P1;durP2;ratioP2;P2;SDS_P1;SDS_P2;PMS_P1;PMS_P2;Temp;Humidity;BMP_temperature;BMP_pressure;BME280_temperature;BME280_humidity;BME280_pressure;Samples;Min_cycle;Max_cycle;Signal;HPM_P1;HPM_P2
2023/01/27 00:01:33;;;;;;;9.93;7.65;;;3.20;99.90;;;;;;4898161;29;20044;-74
2023/01/27 00:03:58;;;;;;;12.02;8.25;;;3.20;99.90;;;;;;4891732;29;20040;-75
2023/01/27 00:06:24;;;;;;;8.75;7.03;;;3.10;99.90;;;;;;4897300;29;20067;-73
2023/01/27 00:08:49;;;;;;;10.80;6.75;;;3.10;99.90;;;;;;4898066;29;20040;-73
2023/01/27 00:13:59;;;;;;;10.80;7.07;;;3.20;99.90;;;;;;4894479;29;20638;-74
2023/01/27 00:16:25;;;;;;;10.45;5.90;;;3.20;99.90;;;;;;4899733;29;20764;-75
2023/01/27 00:18:50;;;;;;;8.82;5.63;;;3.30;99.90;;;;;;4892046;29;20065;-74
2023/01/27 00:26:45;;;;;;;7.68;4.72;;;3.20;99.90;;;;;;4900155;29;20534;-72
2023/01/27 00:29:10;;;;;;;7.63;5.32;;;3.20;99.90;;;;;;4899547;29;20025;-71
2023/01/27 00:34:20;;;;;;;5.95;4.78;;;3.10;99.90;;;;;;4900353;29;20706;-72
2023/01/27 00:36:46;;;;;;;7.00;5.05;;;3.20;99.90;;;;;;4893111;29;20040;-72
2023/01/27 00:39:12;;;;;;;7.35;5.07;;;3.20;99.90;;;;;;4892306;29;20071;-73
2023/01/27 00:41:39;;;;;;;6.65;4.63;;;3.10;99.90;;;;;;4903220;29;20047;-72
2023/01/27 00:44:05;;;;;;;6.28;4.50;;;3.10;99.90;;;;;;4895356;29;20079;-73
2023/01/27 00:46:31;;;;;;;5.63;4.85;;;3.10;99.90;;;;;;4898739;29;20050;-73
2023/01/27 00:48:57;;;;;;;7.35;4.93;;;3.10;99.90;;;;;;4894580;29;20107;-73
2023/01/27 00:51:23;;;;;;;7.20;4.47;;;3.00;99.90;;;;;;4897638;29;20536;-73
2023/01/27 00:53:49;;;;;;;5.82;4.32;;;3.10;99.90;;;;;;4894753;29;20044;-72
2023/01/27 00:56:15;;;;;;;6.63;4.97;;;3.00;99.90;;;;;;4877169;29;20077;-73
2023/01/27 00:58:41;;;;;;;6.38;4.93;;;3.00;99.90;;;;;;4888454;29;20044;-72
2023/01/27 01:01:10;;;;;;;5.72;4.43;;;3.00;99.90;;;;;;4844206;29;20863;-72
2023/01/27 01:03:36;;;;;;;6.82;4.97;;;3.00;99.90;;;;;;4887263;29;20052;-77
2023/01/27 01:06:05;;;;;;;5.63;4.63;;;3.00;99.90;;;;;;4889056;29;21077;-76
2023/01/27 01:08:32;;;;;;;6.32;4.65;;;3.00;99.90;;;;;;4892763;29;20441;-76
2023/01/27 01:10:58;;;;;;;7.05;5.45;;;3.00;99.90;;;;;;4890067;29;20044;-77
2023/01/27 01:13:26;;;;;;;6.70;5.10;;;3.00;99.90;;;;;;4891984;29;21218;-77
2023/01/27 01:15:52;;;;;;;6.88;4.20;;;3.10;99.90;;;;;;4894167;29;20120;-77
2023/01/27 01:18:17;;;;;;;6.22;4.68;;;3.10;99.90;;;;;;4895389;29;20075;-77
2023/01/27 01:20:45;;;;;;;5.80;4.57;;;3.10;99.90;;;;;;4892576;29;20047;-78
2023/01/27 01:23:11;;;;;;;6.13;4.40;;;3.10;99.90;;;;;;4897225;29;20032;-77
2023/01/27 01:25:37;;;;;;;5.82;4.35;;;3.10;99.90;;;;;;4897663;29;20072;-77
2023/01/27 01:28:06;;;;;;;7.97;4.88;;;3.10;99.90;;;;;;4893672;29;20071;-77
2023/01/27 01:30:36;;;;;;;5.75;4.63;;;3.10;99.90;;;;;;4883072;29;21512;-76
2023/01/27 01:33:02;;;;;;;6.22;4.32;;;3.10;99.90;;;;;;4880796;29;20070;-78
2023/01/27 01:35:29;;;;;;;5.30;4.07;;;3.10;99.90;;;;;;4877789;29;20444;-81
2023/01/27 01:37:54;;;;;;;5.70;4.50;;;3.10;99.90;;;;;;4890601;29;20115;-78
2023/01/27 01:40:21;;;;;;;6.50;4.80;;;3.10;99.90;;;;;;4896014;29;20524;-80
2023/01/27 01:42:52;;;;;;;6.25;4.85;;;3.20;99.90;;;;;;4890915;29;20517;-79
2023/01/27 01:45:35;;;;;;;6.35;4.47;;;3.20;99.90;;;;;;4900582;29;20205;-78
2023/01/27 01:48:28;;;;;;;6.75;4.90;;;3.30;99.90;;;;;;4899446;29;20060;-72
2023/01/27 01:51:16;;;;;;;7.40;3.95;;;3.30;99.90;;;;;;4898672;29;20039;-75
2023/01/27 01:54:15;;;;;;;5.88;4.70;;;3.30;99.90;;;;;;4891131;29;20046;-76
2023/01/27 01:56:48;;;;;;;6.75;4.53;;;3.30;99.90;;;;;;4874908;29;20055;-77
2023/01/27 01:59:23;;;;;;;7.97;5.28;;;3.40;99.90;;;;;;4871396;29;20048;-76
2023/01/27 02:01:51;;;;;;;10.80;4.93;;;3.40;99.90;;;;;;4868351;29;20085;-72
2023/01/27 02:04:19;;;;;;;7.78;5.18;;;3.40;99.90;;;;;;4860272;29;20037;-73
2023/01/27 02:07:12;;;;;;;7.80;5.80;;;3.40;99.90;;;;;;4897007;29;20897;-74
2023/01/27 02:09:38;;;;;;;8.45;4.82;;;3.30;99.90;;;;;;4865333;29;20120;-73
2023/01/27 02:12:05;;;;;;;7.35;4.78;;;3.30;99.90;;;;;;4894441;29;20736;-72
2023/01/27 02:14:31;;;;;;;6.78;4.50;;;3.20;99.90;;;;;;4887876;29;20155;-73
2023/01/27 02:16:57;;;;;;;8.40;5.30;;;3.00;99.90;;;;;;4893692;29;20127;-72
2023/01/27 02:19:57;;;;;;;5.82;4.85;;;3.00;99.90;;;;;;4889911;29;20044;-72
2023/01/27 02:22:32;;;;;;;6.60;5.00;;;3.00;99.90;;;;;;4898185;29;20338;-77
2023/01/27 02:25:08;;;;;;;8.18;5.60;;;3.00;99.90;;;;;;4893909;29;20040;-77
2023/01/27 02:27:33;;;;;;;7.75;5.13;;;3.10;99.90;;;;;;4893996;29;20560;-77
2023/01/27 02:29:59;;;;;;;5.95;5.00;;;3.00;99.90;;;;;;4887301;29;20036;-76
2023/01/27 02:32:25;;;;;;;6.90;5.68;;;3.00;99.90;;;;;;4888730;29;20032;-76
2023/01/27 02:34:52;;;;;;;7.25;5.35;;;3.00;99.90;;;;;;4893076;29;20039;-76
2023/01/27 02:37:19;;;;;;;6.95;4.90;;;2.90;99.90;;;;;;4891311;29;20170;-72
2023/01/27 02:39:46;;;;;;;6.60;4.97;;;2.80;99.90;;;;;;4887603;29;20054;-76
2023/01/27 02:42:14;;;;;;;7.15;4.75;;;2.80;99.90;;;;;;4894503;29;20028;-75
2023/01/27 02:44:39;;;;;;;6.78;5.00;;;2.80;99.90;;;;;;4895054;29;20032;-77
2023/01/27 02:47:05;;;;;;;6.60;5.20;;;2.70;99.90;;;;;;4894352;29;20048;-77
2023/01/27 02:49:31;;;;;;;6.63;4.50;;;2.70;99.90;;;;;;4892089;29;20033;-77
2023/01/27 02:51:57;;;;;;;7.25;5.05;;;2.70;99.90;;;;;;4893111;29;20079;-77
2023/01/27 02:54:28;;;;;;;6.53;4.40;;;2.70;99.90;;;;;;4892771;29;20061;-76
2023/01/27 02:56:53;;;;;;;7.53;5.60;;;2.60;99.90;;;;;;4892146;29;20069;-76
2023/01/27 02:59:19;;;;;;;7.15;5.43;;;2.60;99.90;;;;;;4891960;29;20028;-77
2023/01/27 03:01:44;;;;;;;5.95;5.07;;;2.70;99.90;;;;;;4887815;29;20051;-77
2023/01/27 03:04:10;;;;;;;7.20;5.50;;;2.70;99.90;;;;;;4900056;29;20457;-76
2023/01/27 03:06:37;;;;;;;6.35;4.97;;;2.70;99.90;;;;;;4902099;29;20523;-76
2023/01/27 03:09:04;;;;;;;9.13;5.18;;;2.60;99.90;;;;;;4902705;29;20496;-76
2023/01/27 03:14:14;;;;;;;7.75;5.50;;;2.60;99.90;;;;;;4899609;29;20103;-77
2023/01/27 03:19:25;;;;;;;9.05;5.72;;;2.60;99.90;;;;;;4904008;29;20062;-72
2023/01/27 03:21:52;;;;;;;8.88;5.13;;;2.50;99.90;;;;;;4901736;29;20382;-71
2023/01/27 03:24:19;;;;;;;6.90;5.03;;;2.50;99.90;;;;;;4892218;29;20036;-72
2023/01/27 03:26:45;;;;;;;7.82;5.22;;;2.40;99.90;;;;;;4892235;29;20060;-72
2023/01/27 03:32:11;;;;;;;10.10;5.75;;;2.40;99.90;;;;;;4823353;29;20038;-72
2023/01/27 03:34:37;;;;;;;6.85;5.20;;;2.30;99.90;;;;;;4884539;29;20222;-77
2023/01/27 03:47:59;;;;;;;8.88;6.32;;;2.20;99.90;;;;;;4895160;29;20075;-73
2023/01/27 03:50:36;;;;;;;9.32;6.00;;;2.10;99.90;;;;;;4890233;29;20139;-72
2023/01/27 03:53:02;;;;;;;9.90;6.32;;;2.00;99.90;;;;;;4892609;29;20044;-72
2023/01/27 03:55:32;;;;;;;8.27;5.28;;;2.00;99.90;;;;;;4895390;29;20052;-76
2023/01/27 03:58:13;;;;;;;8.30;5.10;;;1.90;99.90;;;;;;4890089;29;20032;-76
2023/01/27 04:00:39;;;;;;;7.93;5.18;;;1.90;99.90;;;;;;4901909;29;20052;-77
2023/01/27 04:08:33;;;;;;;9.57;6.22;;;2.10;99.90;;;;;;4890313;29;20839;-77
2023/01/27 04:13:47;;;;;;;8.95;5.97;;;2.20;99.90;;;;;;4892943;29;20098;-77
2023/01/27 04:16:12;;;;;;;8.23;5.97;;;2.20;99.90;;;;;;4898588;29;20513;-77
2023/01/27 04:18:38;;;;;;;13.98;8.52;;;2.20;99.90;;;;;;4899846;29;20036;-77
2023/01/27 04:21:04;;;;;;;21.42;12.43;;;2.20;99.90;;;;;;4897418;29;20039;-77
2023/01/27 04:23:29;;;;;;;20.15;11.95;;;2.20;99.90;;;;;;4897460;29;20036;-78
2023/01/27 04:25:55;;;;;;;21.27;13.77;;;2.20;99.90;;;;;;4896202;29;20042;-79
2023/01/27 04:28:21;;;;;;;18.98;12.38;;;2.10;99.90;;;;;;4888300;29;20036;-78
2023/01/27 04:30:47;;;;;;;19.45;12.88;;;2.10;99.90;;;;;;4895769;29;20131;-76
2023/01/27 04:33:14;;;;;;;17.30;11.13;;;2.20;99.90;;;;;;4896935;29;20095;-77
2023/01/27 04:35:44;;;;;;;21.40;13.07;;;2.20;99.90;;;;;;4899488;29;20106;-77
2023/01/27 04:38:10;;;;;;;26.13;17.17;;;2.10;99.90;;;;;;4887780;29;20032;-77
2023/01/27 04:40:36;;;;;;;22.08;14.82;;;2.10;99.90;;;;;;4896869;29;20102;-77
2023/01/27 04:43:02;;;;;;;24.08;16.58;;;2.10;99.90;;;;;;4893378;29;20525;-77
2023/01/27 04:45:27;;;;;;;25.33;17.15;;;2.20;99.90;;;;;;4900579;29;20234;-78
2023/01/27 04:47:53;;;;;;;28.42;19.48;;;2.10;99.90;;;;;;4909886;29;20049;-77
2023/01/27 04:50:19;;;;;;;28.88;19.77;;;2.10;99.90;;;;;;4895625;29;20047;-78
2023/01/27 04:52:44;;;;;;;19.25;12.95;;;2.10;99.90;;;;;;4892583;29;20163;-78
2023/01/27 04:55:10;;;;;;;24.75;15.68;;;2.00;99.90;;;;;;4901230;29;20083;-77
2023/01/27 04:57:36;;;;;;;18.98;12.35;;;2.00;99.90;;;;;;4899021;29;20044;-77
2023/01/27 05:00:06;;;;;;;21.63;13.77;;;2.00;99.90;;;;;;4906220;28;20099;-78
2023/01/27 05:02:31;;;;;;;11.95;8.55;;;1.90;99.90;;;;;;4895825;29;20095;-78
2023/01/27 05:04:57;;;;;;;16.77;11.98;;;1.90;99.90;;;;;;4896868;29;21410;-79
2023/01/27 05:07:23;;;;;;;15.38;10.95;;;1.90;99.90;;;;;;4903360;29;20437;-78
2023/01/27 05:09:48;;;;;;;16.67;11.25;;;1.90;99.90;;;;;;4901794;29;20528;-78
2023/01/27 05:12:14;;;;;;;16.73;11.73;;;1.90;99.90;;;;;;4901954;29;20116;-71
2023/01/27 05:14:40;;;;;;;15.52;11.43;;;1.90;99.90;;;;;;4896930;29;20103;-72
2023/01/27 05:17:06;;;;;;;15.13;10.85;;;2.00;99.90;;;;;;4898366;29;20493;-71
2023/01/27 05:19:31;;;;;;;18.92;12.02;;;2.00;99.90;;;;;;4902965;29;20052;-71
2023/01/27 05:21:57;;;;;;;12.80;8.13;;;2.00;99.90;;;;;;4899859;29;20032;-71
2023/01/27 05:24:22;;;;;;;9.40;6.47;;;1.90;99.90;;;;;;4907763;29;20063;-71
2023/01/27 05:26:48;;;;;;;14.43;10.00;;;1.90;99.90;;;;;;4904384;29;20398;-71
2023/01/27 05:29:14;;;;;;;10.15;6.30;;;1.80;99.90;;;;;;4902228;29;20043;-71
2023/01/27 05:31:39;;;;;;;14.00;8.77;;;1.80;99.90;;;;;;4887150;29;20054;-76
2023/01/27 05:34:05;;;;;;;12.82;8.00;;;1.80;99.90;;;;;;4892708;29;20044;-78
2023/01/27 05:36:31;;;;;;;12.35;8.32;;;1.80;99.90;;;;;;4887236;29;20091;-79
2023/01/27 05:38:57;;;;;;;10.75;6.22;;;1.70;99.90;;;;;;4886619;29;20594;-77
2023/01/27 05:41:23;;;;;;;10.82;6.00;;;1.70;99.90;;;;;;4898717;29;20553;-78
2023/01/27 05:43:54;;;;;;;10.18;6.55;;;1.70;99.90;;;;;;4897392;29;20052;-79
2023/01/27 05:46:22;;;;;;;9.68;6.32;;;1.70;99.90;;;;;;4895926;29;20858;-78
2023/01/27 05:48:50;;;;;;;17.40;10.40;;;1.70;99.90;;;;;;4900590;29;20041;-79
2023/01/27 05:51:18;;;;;;;75.43;37.60;;;1.80;99.90;;;;;;4898152;29;20044;-79
2023/01/27 05:53:44;;;;;;;62.28;32.33;;;1.90;99.90;;;;;;4903202;29;20028;-75
2023/01/27 05:56:11;;;;;;;40.30;20.90;;;1.90;99.90;;;;;;4889499;29;20047;-79
2023/01/27 05:58:38;;;;;;;35.03;18.92;;;2.00;99.90;;;;;;4901777;29;20526;-79
2023/01/27 06:01:08;;;;;;;30.23;17.73;;;2.10;99.90;;;;;;4890590;29;20051;-80
2023/01/27 06:03:34;;;;;;;59.92;30.60;;;2.20;99.90;;;;;;4898873;29;20036;-76
2023/01/27 06:05:59;;;;;;;43.92;23.40;;;2.20;99.90;;;;;;4892448;29;20040;-80
2023/01/27 06:08:26;;;;;;;41.60;21.80;;;2.20;99.90;;;;;;4895266;29;20044;-76
2023/01/27 06:10:52;;;;;;;60.47;31.23;;;2.20;99.90;;;;;;4887560;29;20032;-84
2023/01/27 06:13:20;;;;;;;69.00;35.13;;;2.10;99.90;;;;;;4892043;29;20032;-80
2023/01/27 06:15:47;;;;;;;68.53;32.92;;;2.20;99.90;;;;;;4871771;29;20132;-71
2023/01/27 06:18:14;;;;;;;22.42;12.40;;;2.20;99.90;;;;;;4885429;29;20147;-78
2023/01/27 06:20:40;;;;;;;44.05;23.38;;;2.10;99.90;;;;;;4889918;29;20045;-82
2023/01/27 06:23:10;;;;;;;40.22;22.40;;;2.10;99.90;;;;;;4891285;29;20079;-85
2023/01/27 06:25:38;;;;;;;44.70;23.08;;;2.10;99.90;;;;;;4895099;29;20140;-84
2023/01/27 06:28:05;;;;;;;27.63;16.42;;;2.10;99.90;;;;;;4892790;29;20036;-78
2023/01/27 06:30:32;;;;;;;23.17;15.27;;;2.20;99.90;;;;;;4891520;29;20045;-76
2023/01/27 06:32:58;;;;;;;22.50;14.52;;;2.30;99.90;;;;;;4883003;29;21184;-75
2023/01/27 06:35:23;;;;;;;21.02;14.27;;;2.40;99.90;;;;;;4881982;29;20445;-74
2023/01/27 06:37:50;;;;;;;18.42;13.73;;;2.40;99.90;;;;;;4888549;29;20043;-75
2023/01/27 06:40:16;;;;;;;22.90;15.10;;;2.40;99.90;;;;;;4889990;29;20048;-76
2023/01/27 06:42:43;;;;;;;23.58;16.17;;;2.40;99.90;;;;;;4889765;29;20047;-75
2023/01/27 06:45:10;;;;;;;46.78;25.25;;;2.40;99.90;;;;;;4876405;29;20048;-75
2023/01/27 06:47:38;;;;;;;67.72;33.38;;;2.20;99.90;;;;;;4899594;29;20043;-74
2023/01/27 06:50:03;;;;;;;61.45;31.83;;;2.20;99.90;;;;;;4893080;29;20064;-75
2023/01/27 06:52:29;;;;;;;163.30;78.95;;;2.20;99.90;;;;;;4901717;29;20028;-75
2023/01/27 06:54:55;;;;;;;131.13;67.30;;;2.20;99.90;;;;;;4903721;29;20040;-75
2023/01/27 06:57:20;;;;;;;122.18;63.28;;;2.10;99.90;;;;;;4901781;29;20711;-75
2023/01/27 06:59:46;;;;;;;108.22;56.85;;;2.10;99.90;;;;;;4892559;29;20194;-75
2023/01/27 07:02:12;;;;;;;112.13;64.13;;;2.10;99.90;;;;;;4896936;29;20047;-76
2023/01/27 07:04:38;;;;;;;99.00;56.47;;;2.10;99.90;;;;;;4882413;29;20037;-75
2023/01/27 07:07:04;;;;;;;55.53;32.15;;;2.10;99.90;;;;;;4897061;29;20035;-71
2023/01/27 07:09:29;;;;;;;40.95;25.23;;;2.10;99.90;;;;;;4900074;29;20381;-71
2023/01/27 07:11:55;;;;;;;75.07;43.40;;;2.10;99.90;;;;;;4900272;29;20036;-71
2023/01/27 07:14:20;;;;;;;92.13;53.10;;;2.20;99.90;;;;;;4893263;29;20059;-71
2023/01/27 07:16:46;;;;;;;158.38;87.82;;;2.20;99.90;;;;;;4895527;29;20067;-71
2023/01/27 07:19:13;;;;;;;104.25;64.18;;;2.20;99.90;;;;;;4896529;29;20100;-70
2023/01/27 07:21:38;;;;;;;100.50;60.92;;;2.20;99.90;;;;;;4902218;29;20781;-70
2023/01/27 07:24:05;;;;;;;45.05;30.77;;;2.20;99.90;;;;;;4899098;29;20151;-70
2023/01/27 07:26:30;;;;;;;41.75;26.33;;;2.20;99.90;;;;;;4895863;29;20127;-70
2023/01/27 07:28:56;;;;;;;76.47;45.78;;;2.20;99.90;;;;;;4892633;29;20119;-71
2023/01/27 07:31:22;;;;;;;39.90;25.25;;;2.30;99.90;;;;;;4894287;29;20044;-71
2023/01/27 07:33:47;;;;;;;38.95;23.17;;;2.40;99.90;;;;;;4898088;29;20047;-71
2023/01/27 07:36:13;;;;;;;20.70;13.95;;;2.40;99.90;;;;;;4899435;29;20039;-71
2023/01/27 07:38:39;;;;;;;14.90;10.55;;;2.30;99.90;;;;;;4897065;29;20569;-71
2023/01/27 07:41:06;;;;;;;8.98;6.00;;;2.30;99.90;;;;;;4884001;29;20048;-71
2023/01/27 07:43:32;;;;;;;8.15;5.80;;;2.20;99.90;;;;;;4901408;29;20049;-75
2023/01/27 07:45:58;;;;;;;9.73;5.90;;;2.20;99.90;;;;;;4880212;29;20052;-71
2023/01/27 07:48:24;;;;;;;150.13;68.72;;;2.20;99.90;;;;;;4898952;29;20043;-70
2023/01/27 07:50:49;;;;;;;20.15;12.00;;;2.20;99.90;;;;;;4895526;29;20036;-71
2023/01/27 07:53:15;;;;;;;15.27;9.05;;;2.40;99.90;;;;;;4893370;29;20045;-71
2023/01/27 07:55:41;;;;;;;26.42;15.18;;;2.60;99.90;;;;;;4900708;29;20039;-70
2023/01/27 07:58:07;;;;;;;40.72;28.52;;;2.60;99.90;;;;;;4893689;29;20107;-71
2023/01/27 08:00:34;;;;;;;49.60;32.05;;;2.70;99.90;;;;;;4897693;29;20047;-71
2023/01/27 08:03:00;;;;;;;64.30;37.25;;;2.80;99.90;;;;;;4895302;29;20040;-70
2023/01/27 08:05:27;;;;;;;48.97;29.33;;;2.80;99.90;;;;;;4891152;29;20058;-71
2023/01/27 08:07:54;;;;;;;28.02;16.85;;;2.80;99.90;;;;;;4892817;29;20036;-71
2023/01/27 08:10:20;;;;;;;41.72;18.67;;;2.80;99.90;;;;;;4902754;29;20511;-71
2023/01/27 08:12:46;;;;;;;41.97;24.33;;;2.80;99.90;;;;;;4887389;29;20044;-71
2023/01/27 08:15:12;;;;;;;43.17;25.35;;;2.90;99.90;;;;;;4888616;29;20047;-71
2023/01/27 08:17:38;;;;;;;47.75;28.38;;;2.90;99.90;;;;;;4901755;29;20028;-71
2023/01/27 08:20:04;;;;;;;51.50;29.38;;;2.90;99.90;;;;;;4891521;29;20154;-72
2023/01/27 08:22:31;;;;;;;41.85;28.00;;;3.10;99.90;;;;;;4900061;29;20047;-71
2023/01/27 08:24:56;;;;;;;66.78;36.08;;;3.20;99.90;;;;;;4883766;29;20102;-71
2023/01/27 08:27:22;;;;;;;45.63;28.50;;;3.20;99.90;;;;;;4895314;29;20530;-71
2023/01/27 08:29:48;;;;;;;47.63;29.75;;;3.30;99.90;;;;;;4896171;29;20052;-71
2023/01/27 08:32:13;;;;;;;51.35;30.80;;;3.30;99.90;;;;;;4896732;29;20096;-71
2023/01/27 08:34:40;;;;;;;51.42;32.70;;;3.30;99.90;;;;;;4894291;29;20036;-71
2023/01/27 08:37:06;;;;;;;46.45;30.67;;;3.40;99.90;;;;;;4878713;29;20048;-71
2023/01/27 08:39:32;;;;;;;45.50;31.45;;;3.30;99.90;;;;;;4899905;29;20833;-75
2023/01/27 08:41:59;;;;;;;72.63;42.30;;;3.40;99.90;;;;;;4903584;29;20028;-70
2023/01/27 08:44:27;;;;;;;64.38;39.80;;;3.40;99.90;;;;;;4904930;29;20111;-71
2023/01/27 08:46:53;;;;;;;70.43;41.55;;;3.50;99.90;;;;;;4892950;29;20982;-70
2023/01/27 08:49:19;;;;;;;67.90;41.65;;;3.50;99.90;;;;;;4886529;29;20044;-71
2023/01/27 08:51:45;;;;;;;72.18;44.67;;;3.50;99.90;;;;;;4901598;29;20044;-71
2023/01/27 08:54:10;;;;;;;60.65;36.95;;;3.50;99.90;;;;;;4887727;29;21122;-71
2023/01/27 08:56:36;;;;;;;53.05;35.42;;;3.50;99.90;;;;;;4886637;29;20056;-71
2023/01/27 08:59:02;;;;;;;45.85;31.60;;;3.50;99.90;;;;;;4888202;29;20658;-72
2023/01/27 09:01:28;;;;;;;47.15;29.35;;;3.50;99.90;;;;;;4890066;29;20055;-72
2023/01/27 09:03:53;;;;;;;39.60;27.08;;;3.50;99.90;;;;;;4890686;29;20562;-71
2023/01/27 09:06:20;;;;;;;37.28;25.02;;;3.50;99.90;;;;;;4891864;29;20131;-72
2023/01/27 09:09:07;;;;;;;32.40;23.52;;;3.60;99.90;;;;;;4898700;29;20036;-72
2023/01/27 09:11:33;;;;;;;37.72;25.05;;;3.50;99.90;;;;;;4888923;29;20235;-72
2023/01/27 09:14:00;;;;;;;33.38;24.65;;;3.50;99.90;;;;;;4902084;29;20036;-72
2023/01/27 09:16:25;;;;;;;33.08;23.40;;;3.50;99.90;;;;;;4886585;29;20033;-72
2023/01/27 09:18:51;;;;;;;27.75;19.80;;;3.50;99.90;;;;;;4894581;29;20382;-75
2023/01/27 09:21:17;;;;;;;18.60;13.15;;;3.50;99.90;;;;;;4890717;29;20066;-72
2023/01/27 09:23:43;;;;;;;14.68;9.98;;;3.50;99.90;;;;;;4901883;29;20107;-71
2023/01/27 09:26:08;;;;;;;10.52;7.32;;;3.70;99.90;;;;;;4885447;29;20106;-71
2023/01/27 09:28:34;;;;;;;8.48;5.78;;;3.70;99.90;;;;;;4898769;29;20040;-71
2023/01/27 09:30:59;;;;;;;8.40;5.50;;;3.80;99.90;;;;;;4897376;29;20485;-71
2023/01/27 09:33:26;;;;;;;7.55;5.30;;;3.90;99.90;;;;;;4893996;29;20071;-71
2023/01/27 09:36:00;;;;;;;6.38;4.97;;;4.00;99.90;;;;;;4900992;29;20045;-72
2023/01/27 09:38:30;;;;;;;6.28;5.05;;;4.10;99.90;;;;;;4900782;29;20043;-71
2023/01/27 09:41:28;;;;;;;4.88;3.80;;;4.20;99.90;;;;;;4896121;29;20033;-71
2023/01/27 09:44:18;;;;;;;5.72;4.68;;;4.20;99.90;;;;;;4895898;29;20571;-72
2023/01/27 09:46:56;;;;;;;4.72;3.50;;;4.20;99.90;;;;;;4890136;29;20396;-71
2023/01/27 09:49:58;;;;;;;5.43;3.70;;;4.10;99.90;;;;;;4891076;29;20051;-72
2023/01/27 09:52:41;;;;;;;15.38;9.05;;;4.00;99.90;;;;;;4871556;29;20047;-71
2023/01/27 09:55:21;;;;;;;19.35;13.05;;;3.90;99.90;;;;;;4895509;29;20064;-72
2023/01/27 09:57:47;;;;;;;8.88;6.93;;;3.90;99.90;;;;;;4879945;29;20140;-75
2023/01/27 10:00:31;;;;;;;7.35;4.68;;;3.90;99.90;;;;;;4889472;29;20044;-75
2023/01/27 10:03:26;;;;;;;8.32;5.50;;;4.00;99.90;;;;;;4887306;29;20063;-75
2023/01/27 10:06:18;;;;;;;12.98;9.43;;;4.10;99.90;;;;;;4882988;29;20073;-76
2023/01/27 10:09:02;;;;;;;;;;;4.10;99.90;;;;;;4884581;29;20036;-75
2023/01/27 10:11:40;;;;;;;7.50;5.88;;;4.10;99.90;;;;;;4902642;29;20070;-74
2023/01/27 10:14:12;;;;;;;7.03;4.70;;;4.20;99.90;;;;;;4895172;29;20051;-75
2023/01/27 10:16:38;;;;;;;;;;;4.20;99.90;;;;;;4889652;29;20477;-74
2023/01/27 10:19:38;;;;;;;6.22;4.60;;;4.20;99.90;;;;;;4901693;29;19929;-71
2023/01/27 10:22:33;;;;;;;8.57;4.88;;;4.40;99.90;;;;;;4891706;29;20036;-72
2023/01/27 10:25:30;;;;;;;6.55;5.38;;;4.40;99.90;;;;;;4899257;29;20039;-72
2023/01/27 10:27:57;;;;;;;6.80;4.55;;;4.40;99.90;;;;;;4884498;29;20368;-73
2023/01/27 10:30:38;;;;;;;4.90;3.45;;;4.30;99.90;;;;;;4908784;28;20087;-72
2023/01/27 10:33:17;;;;;;;9.18;7.05;;;4.30;99.90;;;;;;4896909;29;20064;-72
2023/01/27 10:36:04;;;;;;;49.55;26.30;;;4.30;99.90;;;;;;4893946;29;20502;-74
2023/01/27 10:38:39;;;;;;;39.00;20.33;;;4.30;99.90;;;;;;4896827;29;20049;-74
2023/01/27 10:41:23;;;;;;;7.18;5.32;;;4.20;99.90;;;;;;4889582;29;20048;-74
2023/01/27 10:44:03;;;;;;;10.40;7.55;;;4.00;99.90;;;;;;4892567;29;20073;-74
2023/01/27 10:46:57;;;;;;;10.23;6.53;;;4.00;99.90;;;;;;4899836;29;20036;-74
2023/01/27 10:49:28;;;;;;;66.78;30.67;;;4.10;99.90;;;;;;4886090;29;20532;-74
2023/01/27 10:52:10;;;;;;;9.45;5.57;;;4.10;99.90;;;;;;4876809;29;20103;-73
2023/01/27 10:54:57;;;;;;;13.55;7.93;;;4.00;99.90;;;;;;4888115;29;20028;-72
2023/01/27 10:57:37;;;;;;;8.95;5.13;;;4.00;99.90;;;;;;4900018;29;20505;-72
2023/01/27 11:00:12;;;;;;;5.65;3.08;;;4.00;99.90;;;;;;4901566;29;20462;-71
2023/01/27 11:03:05;;;;;;;4.13;2.92;;;3.80;99.90;;;;;;4901906;29;20044;-71
2023/01/27 11:05:39;;;;;;;4.30;3.30;;;3.70;99.90;;;;;;4877613;29;20495;-71
2023/01/27 11:08:12;;;;;;;4.13;3.00;;;3.60;99.90;;;;;;4890238;29;20040;-72
2023/01/27 11:13:33;;;;;;;3.95;3.08;;;3.70;99.90;;;;;;4901262;29;21250;-74
2023/01/27 11:16:00;;;;;;;4.90;3.13;;;3.80;99.90;;;;;;4899047;29;21189;-75
2023/01/27 11:18:28;;;;;;;5.22;3.78;;;3.80;99.90;;;;;;4888230;29;20618;-75
2023/01/27 11:21:27;;;;;;;5.22;3.22;;;3.80;99.90;;;;;;4882012;29;20063;-74
2023/01/27 11:23:55;;;;;;;4.35;3.45;;;3.70;99.90;;;;;;4899744;29;20028;-74
2023/01/27 11:26:45;;;;;;;4.05;3.00;;;3.60;99.90;;;;;;4880143;29;20044;-74
2023/01/27 11:29:36;;;;;;;4.68;3.50;;;3.60;99.90;;;;;;4890389;29;20160;-74
2023/01/27 11:32:46;;;;;;;6.50;3.10;;;3.60;99.90;;;;;;4887209;29;20036;-74
2023/01/27 11:35:14;;;;;;;5.15;3.60;;;3.70;99.90;;;;;;4893905;29;20040;-72
2023/01/27 11:37:42;;;;;;;4.65;3.08;;;3.80;99.90;;;;;;4904402;29;20111;-73
2023/01/27 11:40:28;;;;;;;5.78;4.00;;;3.80;99.90;;;;;;4898416;29;20060;-73
2023/01/27 11:42:57;;;;;;;4.45;3.35;;;3.80;99.90;;;;;;4888314;29;20359;-72
2023/01/27 11:45:23;;;;;;;5.15;3.47;;;3.70;99.90;;;;;;4894930;29;20040;-73
2023/01/27 11:47:55;;;;;;;4.30;3.13;;;3.60;99.90;;;;;;4889020;29;20070;-73
2023/01/27 11:50:24;;;;;;;5.30;3.75;;;3.60;99.90;;;;;;4887444;29;20045;-72
2023/01/27 11:53:16;;;;;;;5.03;4.30;;;3.50;99.90;;;;;;4899976;29;20028;-73
2023/01/27 11:55:47;;;;;;;5.25;4.05;;;3.40;99.90;;;;;;4891243;29;20049;-73
2023/01/27 11:58:35;;;;;;;5.50;4.22;;;3.30;99.90;;;;;;4867138;29;20428;-72
2023/01/27 12:01:08;;;;;;;6.60;4.82;;;3.20;99.90;;;;;;4896774;29;20405;-72
2023/01/27 12:03:57;;;;;;;5.40;4.35;;;3.20;99.90;;;;;;4885989;29;20059;-72
2023/01/27 12:06:58;;;;;;;6.40;4.95;;;3.20;99.90;;;;;;4889642;29;20052;-72
2023/01/27 12:09:30;;;;;;;6.22;4.60;;;3.10;99.90;;;;;;4882493;29;20048;-76
2023/01/27 12:12:12;;;;;;;6.30;4.60;;;3.30;99.90;;;;;;4890044;29;20059;-74
2023/01/27 12:14:38;;;;;;;;;;;3.30;99.90;;;;;;4892889;29;20122;-75
2023/01/27 12:17:06;;;;;;;6.32;4.40;;;3.30;99.90;;;;;;4899773;29;19919;-77
2023/01/27 12:19:36;;;;;;;6.07;4.30;;;3.20;99.90;;;;;;4898034;29;20042;-76
2023/01/27 12:22:13;;;;;;;8.13;4.75;;;3.20;99.90;;;;;;4892671;29;20044;-76
2023/01/27 12:24:45;;;;;;;5.70;4.57;;;3.40;99.90;;;;;;4887545;29;20044;-77
2023/01/27 12:27:20;;;;;;;6.07;4.63;;;3.40;99.90;;;;;;4895547;29;20044;-76
2023/01/27 12:30:16;;;;;;;6.45;5.05;;;3.40;99.90;;;;;;4897316;29;20517;-77
2023/01/27 12:32:47;;;;;;;6.82;5.47;;;3.40;99.90;;;;;;4887722;29;20197;-69
2023/01/27 12:35:19;;;;;;;6.75;4.72;;;3.30;99.90;;;;;;4901408;29;20032;-68
2023/01/27 12:37:46;;;;;;;;;;;3.30;99.90;;;;;;4892794;29;20059;-68
2023/01/27 12:40:21;;;;;;;8.10;4.85;;;3.20;99.90;;;;;;4904038;29;19923;-69
2023/01/27 12:42:50;;;;;;;8.50;5.88;;;3.20;99.90;;;;;;4900867;29;20044;-69
2023/01/27 12:45:20;;;;;;;8.70;5.47;;;3.10;99.90;;;;;;4897268;29;20040;-69
2023/01/27 12:48:11;;;;;;;7.00;5.55;;;3.00;99.90;;;;;;4879788;29;20040;-73
2023/01/27 12:50:40;;;;;;;7.07;5.28;;;3.00;99.90;;;;;;4897359;29;20136;-75
2023/01/27 12:53:10;;;;;;;10.23;5.57;;;2.90;99.90;;;;;;4881122;29;20482;-75
2023/01/27 12:55:40;;;;;;;7.05;5.32;;;2.80;99.90;;;;;;4892047;29;20099;-75
2023/01/27 12:58:27;;;;;;;8.85;5.70;;;2.90;99.90;;;;;;4889831;29;20035;-75
2023/01/27 13:00:53;;;;;;;7.50;5.10;;;2.90;99.90;;;;;;4890884;29;20072;-75
2023/01/27 13:03:21;;;;;;;7.88;5.80;;;3.00;99.90;;;;;;4876896;29;20040;-75
2023/01/27 13:05:51;;;;;;;24.70;19.17;;;3.00;99.90;;;;;;4881962;29;20513;-75
2023/01/27 13:08:18;;;;;;;7.80;5.97;;;3.10;99.90;;;;;;4889122;29;20264;-75
2023/01/27 13:10:58;;;;;;;7.85;5.82;;;3.30;99.90;;;;;;4888746;29;20040;-76
2023/01/27 13:13:26;;;;;;;11.25;8.07;;;3.40;99.90;;;;;;4887861;29;20139;-76
2023/01/27 13:16:22;;;;;;;7.40;5.50;;;3.40;99.90;;;;;;4891313;29;20032;-76
2023/01/27 13:18:57;;;;;;;57.58;32.70;;;3.40;99.90;;;;;;4890229;29;20108;-76
2023/01/27 13:21:33;;;;;;;10.45;7.80;;;3.40;99.90;;;;;;4882338;29;20612;-76
2023/01/27 13:24:04;;;;;;;6.82;5.28;;;3.30;99.90;;;;;;4876382;29;20056;-76
2023/01/27 13:26:33;;;;;;;9.30;5.97;;;3.40;99.90;;;;;;4879018;29;20048;-72
2023/01/27 13:29:08;;;;;;;7.47;5.78;;;3.40;99.90;;;;;;4888136;29;20047;-72
2023/01/27 13:31:51;;;;;;;7.35;5.68;;;3.50;99.90;;;;;;4886339;29;20045;-72
2023/01/27 13:34:32;;;;;;;6.63;5.10;;;3.60;99.90;;;;;;4889621;29;20131;-71
2023/01/27 13:37:15;;;;;;;7.95;5.93;;;3.50;99.90;;;;;;4897960;29;20044;-73
2023/01/27 13:39:58;;;;;;;6.60;5.05;;;3.50;99.90;;;;;;4912142;29;20578;-71
2023/01/27 13:42:32;;;;;;;6.80;5.40;;;3.60;99.90;;;;;;4874982;29;20044;-72
2023/01/27 13:45:15;;;;;;;8.30;5.70;;;3.50;99.90;;;;;;4897132;29;20044;-71
2023/01/27 13:48:11;;;;;;;8.13;6.00;;;3.60;99.90;;;;;;4900655;29;20058;-76
2023/01/27 13:50:51;;;;;;;8.05;6.15;;;3.60;99.90;;;;;;4888713;29;20576;-77